Terminal Aerodrome Forecast
Issued by NWS

Home | Current Version | Previous Version | Text Only | Print | Product List | Glossary On
Versions: 1 2 3 4 5 6 7 8 9 10 11 12
000
FTUS45 KREV 300526
TAFTRK
TAF
KTRK 300526Z 3006/3106 VRB03KT P6SM SCT110 BKN180
     FM300800 VRB03KT P6SM SCT180
     FM302000 22012G22KT P6SM SCT080 SCT180
     FM302300 25011G20KT P6SM SCT080 BKN180
     FM310200 20006KT P6SM SCT180=

USA.gov is the U.S. government's official web portal to all federal, state and local government web resources and services.